Time;durP1;ratioP1;P1;durP2;ratioP2;P2;SDS_P1;SDS_P2;PMS_P1;PMS_P2;Temp;Humidity;BMP_temperature;BMP_pressure;BME280_temperature;BME280_humidity;BME280_pressure;Samples;Min_cycle;Max_cycle;Signal;HPM_P1;HPM_P2
2021/09/28 00:01:20;;;;;;;15.88;10.68;;;;;;;7.78;93.07;101337.85;1648963;84;21843;-72
2021/09/28 00:03:47;;;;;;;14.47;10.65;;;;;;;7.74;93.17;101330.31;1641723;84;21576;-73
2021/09/28 00:06:14;;;;;;;14.30;11.28;;;;;;;7.73;93.28;101331.84;1648074;86;21126;-72
2021/09/28 00:08:44;;;;;;;13.28;9.88;;;;;;;7.72;93.32;101331.55;1651397;84;21055;-72
2021/09/28 00:11:13;;;;;;;14.15;10.60;;;;;;;7.69;93.41;101333.31;1650430;86;21043;-72
2021/09/28 00:13:42;;;;;;;12.15;9.65;;;;;;;7.65;93.48;101330.28;1649336;86;21079;-73
2021/09/28 00:16:09;;;;;;;16.15;12.35;;;;;;;7.63;93.48;101331.00;1651645;86;21602;-72
2021/09/28 00:18:36;;;;;;;14.35;12.60;;;;;;;7.59;93.51;101333.81;1654457;84;21067;-73
2021/09/28 00:21:04;;;;;;;15.43;12.35;;;;;;;7.55;93.58;101335.28;1647983;86;22012;-72
2021/09/28 00:23:33;;;;;;;14.55;12.13;;;;;;;7.54;93.64;101334.19;1651634;86;21080;-72
2021/09/28 00:26:13;;;;;;;12.98;9.90;;;;;;;7.51;93.68;101331.44;1650082;85;21234;-72
2021/09/28 00:28:53;;;;;;;13.32;10.70;;;;;;;7.48;93.67;101328.69;1598800;87;22132;-72
2021/09/28 00:31:21;;;;;;;10.95;8.88;;;;;;;7.45;93.70;101333.11;1600257;89;21110;-72
2021/09/28 00:33:47;;;;;;;13.10;9.35;;;;;;;7.42;93.74;101334.87;1624191;86;21084;-73
2021/09/28 00:36:14;;;;;;;12.03;9.33;;;;;;;7.39;93.80;101332.64;1656266;84;21562;-72
2021/09/28 00:38:41;;;;;;;11.73;8.90;;;;;;;7.37;93.86;101332.55;1646805;84;21154;-72
2021/09/28 00:41:08;;;;;;;10.80;8.93;;;;;;;7.37;93.91;101330.73;1598233;89;21095;-72
2021/09/28 00:43:54;;;;;;;12.58;8.58;;;;;;;7.36;93.98;101337.58;1600069;87;21241;-72
2021/09/28 00:46:23;;;;;;;11.38;9.18;;;;;;;7.34;94.03;101335.64;1644216;85;21142;-72
2021/09/28 00:48:51;;;;;;;13.80;9.30;;;;;;;7.34;94.07;101336.97;1601068;87;21088;-72
2021/09/28 00:51:17;;;;;;;12.18;9.83;;;;;;;7.32;94.16;101335.06;1589053;89;21147;-72
2021/09/28 00:53:45;;;;;;;10.53;7.97;;;;;;;7.29;94.22;101329.14;1645906;86;21079;-72
2021/09/28 00:56:15;;;;;;;10.70;8.75;;;;;;;7.28;94.29;101329.38;1654761;85;21059;-71
2021/09/28 00:58:41;;;;;;;11.05;9.00;;;;;;;7.25;94.29;101330.61;1646358;86;21549;-72
2021/09/28 01:01:09;;;;;;;10.65;8.80;;;;;;;7.22;94.33;101325.72;1626200;86;21210;-72
2021/09/28 01:03:38;;;;;;;11.00;8.65;;;;;;;7.20;94.34;101331.75;1645061;86;21818;-73
2021/09/28 01:06:05;;;;;;;10.13;8.20;;;;;;;7.18;94.32;101333.83;1650920;85;21070;-72
2021/09/28 01:08:32;;;;;;;10.50;8.38;;;;;;;7.17;94.28;101328.72;1647568;86;21091;-72
2021/09/28 01:11:00;;;;;;;10.30;7.67;;;;;;;7.14;94.24;101324.67;1653356;84;21079;-72
2021/09/28 01:13:29;;;;;;;11.48;8.25;;;;;;;7.11;94.17;101331.74;1653835;86;21035;-71
2021/09/28 01:16:04;;;;;;;12.63;8.85;;;;;;;7.09;94.13;101328.47;1650837;85;22085;-71
2021/09/28 01:18:35;;;;;;;12.07;9.60;;;;;;;7.04;94.25;101331.78;1583840;89;21064;-71
2021/09/28 01:21:02;;;;;;;12.30;9.40;;;;;;;7.01;94.34;101330.88;1599920;89;21117;-72
2021/09/28 01:23:31;;;;;;;12.18;9.10;;;;;;;7.00;94.41;101337.72;1652155;84;21783;-72
2021/09/28 01:25:57;;;;;;;11.95;9.23;;;;;;;7.00;94.51;101324.44;1654592;84;21067;-72
2021/09/28 01:28:25;;;;;;;14.20;10.58;;;;;;;6.97;94.57;101327.52;1585222;87;21161;-71
2021/09/28 01:30:51;;;;;;;10.72;8.58;;;;;;;6.96;94.64;101332.02;1597825;88;22577;-71
2021/09/28 01:33:18;;;;;;;13.70;9.33;;;;;;;7.00;94.62;101333.73;1623942;86;21070;-71
2021/09/28 01:35:45;;;;;;;13.45;9.60;;;;;;;6.98;94.66;101337.95;1593622;89;21542;-72
2021/09/28 01:38:11;;;;;;;11.97;8.85;;;;;;;6.98;94.69;101336.62;1655253;84;21572;-71
2021/09/28 01:40:38;;;;;;;12.30;9.23;;;;;;;6.98;94.78;101337.14;1659125;85;21158;-71
2021/09/28 01:43:09;;;;;;;10.43;8.48;;;;;;;6.98;94.94;101333.16;1663742;81;21028;-70
2021/09/28 01:45:36;;;;;;;11.00;9.05;;;;;;;7.00;95.05;101339.05;1664601;81;21498;-70
2021/09/28 01:48:08;;;;;;;11.70;8.58;;;;;;;7.00;95.17;101335.88;1651293;86;21103;-72
2021/09/28 01:50:35;;;;;;;15.20;10.00;;;;;;;7.02;95.29;101335.68;1658035;84;21122;-71
2021/09/28 01:53:03;;;;;;;11.25;8.88;;;;;;;7.03;95.41;101338.63;1636358;86;21861;-72
2021/09/28 01:55:30;;;;;;;11.03;8.83;;;;;;;7.02;95.50;101335.16;1595208;87;21107;-71
2021/09/28 01:57:58;;;;;;;11.10;8.75;;;;;;;7.02;95.60;101333.83;1596111;88;21193;-71
2021/09/28 02:00:26;;;;;;;10.70;8.65;;;;;;;7.02;95.68;101338.34;1659381;84;21534;-72
2021/09/28 02:02:52;;;;;;;10.80;7.87;;;;;;;7.02;95.72;101333.83;1660605;84;21049;-72
2021/09/28 02:05:20;;;;;;;9.60;7.62;;;;;;;7.02;95.72;101335.68;1658689;84;21803;-71
2021/09/28 02:07:47;;;;;;;10.48;8.65;;;;;;;7.01;95.74;101336.20;1661000;84;21673;-71
2021/09/28 02:10:14;;;;;;;11.53;8.68;;;;;;;7.02;95.76;101337.00;1646905;84;21126;-73
2021/09/28 02:12:41;;;;;;;9.75;8.33;;;;;;;7.01;95.79;101330.08;1638978;86;21059;-72
2021/09/28 02:15:09;;;;;;;11.43;8.35;;;;;;;7.01;95.79;101334.87;1648040;84;21519;-72
2021/09/28 02:17:36;;;;;;;10.95;8.40;;;;;;;6.99;95.76;101332.93;1658070;86;21538;-72
2021/09/28 02:20:05;;;;;;;11.85;8.88;;;;;;;6.96;95.80;101339.19;1641350;84;21087;-71
2021/09/28 02:22:31;;;;;;;10.88;8.10;;;;;;;6.96;95.82;101337.86;1655207;86;21059;-72
2021/09/28 02:24:59;;;;;;;10.82;8.33;;;;;;;6.95;95.82;101346.86;1649407;84;21035;-72
2021/09/28 02:27:25;;;;;;;12.37;7.92;;;;;;;6.91;95.81;101340.32;1665028;84;21134;-71
2021/09/28 02:29:53;;;;;;;10.82;8.50;;;;;;;6.88;95.81;101339.42;1649280;84;21020;-72
2021/09/28 02:32:21;;;;;;;10.82;7.40;;;;;;;6.86;95.78;101341.49;1655609;85;21063;-71
2021/09/28 02:34:48;;;;;;;9.78;8.05;;;;;;;6.82;95.71;101343.77;1625128;86;21068;-71
2021/09/28 02:37:15;;;;;;;12.93;7.28;;;;;;;6.79;95.67;101348.17;1642914;86;21063;-71
2021/09/28 02:39:42;;;;;;;10.20;7.92;;;;;;;6.73;95.57;101347.69;1659154;85;21091;-71
2021/09/28 02:42:11;;;;;;;13.28;8.08;;;;;;;6.66;95.52;101353.02;1649753;86;21883;-72
2021/09/28 02:44:38;;;;;;;12.75;8.90;;;;;;;6.61;95.51;101356.00;1647216;84;21660;-71
2021/09/28 02:47:07;;;;;;;12.05;8.15;;;;;;;6.55;95.54;101354.51;1652285;84;21058;-71
2021/09/28 02:49:33;;;;;;;11.80;8.58;;;;;;;6.52;95.57;101356.77;1659721;84;21174;-71
2021/09/28 02:52:01;;;;;;;10.30;7.70;;;;;;;6.49;95.54;101357.19;1651628;84;21052;-71
2021/09/28 02:54:28;;;;;;;10.63;7.47;;;;;;;6.46;95.53;101354.95;1593444;88;21168;-72
2021/09/28 02:56:55;;;;;;;9.63;7.42;;;;;;;6.43;95.51;101358.83;1598384;87;21099;-71
2021/09/28 02:59:22;;;;;;;10.53;7.15;;;;;;;6.39;95.48;101354.98;1659906;86;21081;-71
2021/09/28 03:01:49;;;;;;;9.33;7.30;;;;;;;6.34;95.46;101358.23;1655711;84;21510;-71
2021/09/28 03:04:16;;;;;;;10.45;8.05;;;;;;;6.31;95.42;101358.66;1588129;88;21150;-72
2021/09/28 03:06:43;;;;;;;9.23;6.70;;;;;;;6.28;95.39;101368.87;1664891;84;21161;-71
2021/09/28 03:09:10;;;;;;;9.65;7.50;;;;;;;6.24;95.38;101368.47;1600994;87;21575;-71
2021/09/28 03:11:38;;;;;;;10.30;7.60;;;;;;;6.22;95.39;101365.23;1596692;89;21119;-71
2021/09/28 03:14:05;;;;;;;9.98;7.65;;;;;;;6.19;95.42;101369.63;1663109;84;21213;-72
2021/09/28 03:16:33;;;;;;;10.18;7.55;;;;;;;6.19;95.51;101367.49;1636676;86;21531;-72
2021/09/28 03:18:59;;;;;;;11.95;7.83;;;;;;;6.17;95.55;101366.36;1658811;84;21141;-72
2021/09/28 03:21:27;;;;;;;10.28;7.90;;;;;;;6.14;95.56;101370.74;1602085;88;21060;-72
2021/09/28 03:23:54;;;;;;;8.73;6.95;;;;;;;6.13;95.59;101372.30;1637068;86;21606;-72
2021/09/28 03:26:20;;;;;;;14.33;8.73;;;;;;;6.11;95.61;101376.46;1607941;87;21172;-72
2021/09/28 03:28:49;;;;;;;15.83;8.70;;;;;;;6.09;95.63;101379.85;1635844;84;21716;-72
2021/09/28 03:31:16;;;;;;;12.20;7.62;;;;;;;6.04;95.64;101379.13;1596043;87;22370;-72
2021/09/28 03:33:44;;;;;;;24.67;8.90;;;;;;;6.05;95.68;101379.94;1578759;87;21072;-72
2021/09/28 03:36:11;;;;;;;42.43;8.35;;;;;;;6.05;95.79;101390.03;1656933;85;21103;-72
2021/09/28 03:38:38;;;;;;;47.33;8.55;;;;;;;6.06;95.87;101381.59;1658914;85;21150;-72
2021/09/28 03:41:05;;;;;;;42.80;8.43;;;;;;;6.08;95.97;101391.46;1664195;84;21053;-72
2021/09/28 03:43:32;;;;;;;16.75;6.78;;;;;;;6.08;96.06;101398.09;1661336;85;21127;-72
2021/09/28 03:45:59;;;;;;;70.22;8.73;;;;;;;6.06;96.15;101399.64;1629714;86;21069;-71
2021/09/28 03:48:27;;;;;;;68.17;8.58;;;;;;;6.06;96.26;101396.98;1644609;84;21132;-73
2021/09/28 03:52:23;;;;;;;56.40;9.87;;;;;;;6.04;96.70;101403.51;1542081;78;10001182;-74
2021/09/28 03:54:50;;;;;;;30.12;8.28;;;;;;;6.07;96.75;101405.23;1778456;79;21047;-74
2021/09/28 03:57:18;;;;;;;24.15;8.30;;;;;;;6.13;96.74;101408.10;1783488;79;21023;-74
2021/09/28 03:59:46;;;;;;;15.32;7.58;;;;;;;6.16;96.81;101403.20;1776177;79;21503;-72
2021/09/28 04:02:15;;;;;;;26.12;9.40;;;;;;;6.21;96.91;101398.58;1767027;79;21600;-72
2021/09/28 04:04:41;;;;;;;26.82;10.23;;;;;;;6.25;97.05;101405.94;1784338;79;21307;-73
2021/09/28 04:07:08;;;;;;;23.70;9.75;;;;;;;6.28;97.11;101401.52;1775249;80;21610;-73
2021/09/28 04:09:35;;;;;;;24.85;9.85;;;;;;;6.33;97.16;101400.91;1767449;80;21020;-73
2021/09/28 04:12:02;;;;;;;46.08;10.90;;;;;;;6.38;97.22;101402.93;1762491;79;21123;-73
2021/09/28 04:14:31;;;;;;;33.42;11.15;;;;;;;6.44;97.25;101406.89;1715773;81;21161;-72
2021/09/28 04:16:57;;;;;;;41.98;10.53;;;;;;;6.45;97.24;101401.07;1720110;81;21106;-72
2021/09/28 04:19:26;;;;;;;32.50;10.00;;;;;;;6.50;97.28;101402.59;1745650;81;21031;-72
2021/09/28 04:21:54;;;;;;;32.67;9.93;;;;;;;6.53;97.34;101408.30;1710690;82;21041;-72
2021/09/28 04:24:22;;;;;;;20.92;9.35;;;;;;;6.57;97.35;101414.81;1722642;81;21041;-72
2021/09/28 04:26:49;;;;;;;15.80;7.47;;;;;;;6.60;97.40;101410.13;1679548;82;21548;-73
2021/09/28 04:29:16;;;;;;;12.73;8.13;;;;;;;6.62;97.44;101408.09;1735035;81;20941;-71
2021/09/28 04:31:43;;;;;;;15.25;8.00;;;;;;;6.61;97.39;101395.81;1714994;81;21097;-72
2021/09/28 04:34:10;;;;;;;16.07;7.97;;;;;;;6.63;97.40;101405.20;1726572;82;21094;-72
2021/09/28 04:36:37;;;;;;;29.87;9.15;;;;;;;6.64;97.38;101408.16;1722484;82;22175;-72
2021/09/28 04:39:04;;;;;;;22.48;8.70;;;;;;;6.66;97.37;101406.63;1729137;82;21510;-72
2021/09/28 04:41:31;;;;;;;13.72;8.50;;;;;;;6.68;97.42;101410.72;1733364;81;20992;-72
2021/09/28 04:43:58;;;;;;;21.48;8.98;;;;;;;6.72;97.44;101412.44;1734469;82;21088;-72
2021/09/28 04:46:25;;;;;;;11.40;8.23;;;;;;;6.79;97.52;101420.67;1728768;81;21471;-72
2021/09/28 04:48:57;;;;;;;23.35;8.83;;;;;;;6.86;97.53;101418.50;1732361;81;21106;-72
2021/09/28 04:51:24;;;;;;;15.15;8.93;;;;;;;6.92;97.52;101415.81;1721443;81;21106;-73
2021/09/28 04:53:51;;;;;;;26.70;9.60;;;;;;;6.94;97.49;101413.78;1712322;81;21154;-73
2021/09/28 04:56:17;;;;;;;24.10;9.58;;;;;;;6.99;97.46;101415.78;1717568;83;21874;-74
2021/09/28 04:58:47;;;;;;;12.65;8.58;;;;;;;7.02;97.39;101425.47;1754648;79;20959;-73
2021/09/28 05:01:15;;;;;;;20.52;9.00;;;;;;;7.06;97.33;101424.53;1750536;79;21050;-73
2021/09/28 05:03:41;;;;;;;17.67;9.20;;;;;;;7.11;97.33;101429.19;1762529;80;21147;-73
2021/09/28 05:06:08;;;;;;;13.13;8.20;;;;;;;7.16;97.28;101426.21;1763406;80;21120;-74
2021/09/28 05:08:37;;;;;;;15.23;7.92;;;;;;;7.19;97.17;101429.77;1761334;80;21082;-73
2021/09/28 05:11:04;;;;;;;12.00;8.10;;;;;;;7.22;97.10;101428.54;1760496;80;21208;-73
2021/09/28 05:13:30;;;;;;;14.40;8.03;;;;;;;7.24;97.03;101433.14;1761944;80;21549;-73
2021/09/28 05:15:57;;;;;;;14.68;9.18;;;;;;;7.29;97.02;101435.44;1768844;79;21320;-73
2021/09/28 05:18:24;;;;;;;14.38;8.75;;;;;;;7.34;97.00;101436.14;1760859;80;21036;-73
2021/09/28 05:20:50;;;;;;;16.95;8.88;;;;;;;7.39;96.91;101433.64;1745529;80;21541;-73
2021/09/28 05:23:17;;;;;;;17.27;8.48;;;;;;;7.46;96.84;101434.92;1749123;80;21008;-73
2021/09/28 05:25:44;;;;;;;12.20;8.68;;;;;;;7.53;96.79;101434.36;1764967;79;21054;-74
2021/09/28 05:28:11;;;;;;;10.18;6.92;;;;;;;7.63;96.79;101433.89;1764276;80;21450;-74
2021/09/28 05:30:38;;;;;;;16.97;10.08;;;;;;;7.72;96.66;101428.09;1751548;80;21549;-73
2021/09/28 05:33:05;;;;;;;9.95;7.28;;;;;;;7.74;96.36;101430.55;1727275;81;21100;-71
2021/09/28 05:35:32;;;;;;;14.18;8.18;;;;;;;7.79;96.33;101436.54;1764226;80;21145;-74
2021/09/28 05:37:59;;;;;;;10.85;7.83;;;;;;;7.79;96.15;101436.02;1753729;80;21523;-73
2021/09/28 05:40:26;;;;;;;11.48;8.08;;;;;;;7.79;95.98;101442.66;1760370;80;21504;-77
2021/09/28 05:42:53;;;;;;;14.85;9.50;;;;;;;7.82;95.92;101450.73;1765391;80;21126;-74
2021/09/28 05:45:20;;;;;;;11.43;8.48;;;;;;;7.87;95.90;101445.59;1766147;80;21580;-73
2021/09/28 05:47:48;;;;;;;12.20;9.00;;;;;;;7.93;95.93;101448.20;1746224;80;21335;-74
2021/09/28 05:50:21;;;;;;;12.47;8.75;;;;;;;8.02;95.92;101444.73;1750089;80;21075;-75
2021/09/28 05:52:53;;;;;;;10.80;8.40;;;;;;;8.12;95.73;101449.03;1755451;80;21156;-77
2021/09/28 05:55:25;;;;;;;8.78;7.03;;;;;;;8.17;95.46;101449.21;1759114;80;21020;-77
2021/09/28 05:57:53;;;;;;;9.23;7.47;;;;;;;8.27;95.37;101459.88;1749402;80;21550;-79
2021/09/28 06:00:20;;;;;;;9.43;7.50;;;;;;;8.28;94.92;101460.17;1768988;79;21058;-78
2021/09/28 06:02:48;;;;;;;9.53;7.58;;;;;;;8.29;94.81;101449.80;1772336;79;20953;-74
2021/09/28 06:05:14;;;;;;;9.65;7.17;;;;;;;8.34;94.63;101449.98;1756131;80;21467;-76
2021/09/28 06:07:42;;;;;;;10.30;6.85;;;;;;;8.40;94.33;101451.80;1752162;80;21196;-77
2021/09/28 06:10:09;;;;;;;10.35;7.55;;;;;;;8.45;94.19;101458.59;1755774;80;21637;-75
2021/09/28 06:12:38;;;;;;;9.60;7.58;;;;;;;8.50;94.05;101454.76;1756701;80;21032;-75
2021/09/28 06:15:07;;;;;;;8.63;6.50;;;;;;;8.57;93.99;101453.36;1748738;80;21055;-77
2021/09/28 06:17:34;;;;;;;11.30;7.83;;;;;;;8.64;93.83;101453.57;1755800;80;21086;-76
2021/09/28 06:20:01;;;;;;;8.23;6.45;;;;;;;8.75;93.62;101456.53;1756516;79;21324;-77
2021/09/28 06:22:30;;;;;;;8.85;6.97;;;;;;;8.85;93.45;101454.99;1754790;79;21187;-76
2021/09/28 06:24:59;;;;;;;9.20;7.42;;;;;;;8.88;93.12;101465.70;1756013;79;21174;-77
2021/09/28 06:27:25;;;;;;;11.05;8.50;;;;;;;8.85;92.89;101462.98;1753737;80;21152;-77
2021/09/28 06:29:52;;;;;;;12.40;8.88;;;;;;;8.90;92.83;101463.63;1754779;80;21184;-76
2021/09/28 06:32:22;;;;;;;10.68;8.28;;;;;;;8.96;92.82;101464.08;1757127;80;21118;-76
2021/09/28 06:34:51;;;;;;;9.83;8.58;;;;;;;9.07;92.76;101459.31;1755042;80;21059;-75
2021/09/28 06:37:17;;;;;;;10.13;7.50;;;;;;;9.17;92.57;101462.77;1754117;79;21047;-76
2021/09/28 06:39:46;;;;;;;9.30;7.00;;;;;;;9.30;92.29;101464.45;1756238;79;21634;-77
2021/09/28 06:42:17;;;;;;;10.15;8.08;;;;;;;9.30;91.70;101464.45;1755020;80;21097;-77
2021/09/28 06:44:53;;;;;;;10.73;8.23;;;;;;;9.31;91.47;101468.73;1756056;80;21139;-76
2021/09/28 06:47:27;;;;;;;10.30;6.87;;;;;;;9.37;91.18;101469.17;1755289;80;21299;-75
2021/09/28 06:49:54;;;;;;;9.77;7.57;;;;;;;9.46;90.93;101469.15;1754758;79;22239;-77
2021/09/28 06:52:21;;;;;;;9.80;7.17;;;;;;;9.49;90.49;101470.03;1703565;82;21902;-76
2021/09/28 06:54:47;;;;;;;11.43;7.90;;;;;;;9.53;90.37;101468.53;1758149;79;21321;-76
2021/09/28 06:57:14;;;;;;;12.43;7.57;;;;;;;9.58;90.10;101473.20;1756220;79;21290;-77
2021/09/28 06:59:41;;;;;;;10.77;7.77;;;;;;;9.66;90.01;101476.86;1756294;80;21673;-75
2021/09/28 07:02:09;;;;;;;11.20;8.73;;;;;;;9.77;89.98;101478.77;1757887;80;21260;-77
2021/09/28 07:04:36;;;;;;;9.90;8.20;;;;;;;9.86;89.21;101487.23;1756435;80;22025;-75
2021/09/28 07:07:07;;;;;;;9.43;8.00;;;;;;;9.90;88.78;101480.38;1757745;80;21112;-76
2021/09/28 07:09:35;;;;;;;6.93;5.90;;;;;;;9.95;88.37;101477.85;1756693;80;21291;-75
2021/09/28 07:12:02;;;;;;;10.33;8.93;;;;;;;9.99;87.95;101484.35;1758716;80;21393;-72
2021/09/28 07:14:30;;;;;;;10.13;8.00;;;;;;;10.01;87.73;101484.14;1756084;79;21313;-74
2021/09/28 07:16:57;;;;;;;9.17;7.60;;;;;;;10.12;87.40;101490.52;1756195;80;21272;-74
2021/09/28 07:19:24;;;;;;;10.47;6.77;;;;;;;10.19;86.99;101493.89;1758058;80;21244;-77
2021/09/28 07:21:51;;;;;;;9.03;7.03;;;;;;;10.22;86.48;101496.91;1754239;79;21208;-77
2021/09/28 07:24:17;;;;;;;9.87;7.90;;;;;;;10.24;85.77;101498.03;1753910;79;21333;-76
2021/09/28 07:26:47;;;;;;;8.23;7.03;;;;;;;10.23;85.51;101500.39;1751541;80;21349;-73
2021/09/28 07:29:14;;;;;;;9.70;7.30;;;;;;;10.26;85.31;101497.29;1755622;80;21593;-75
2021/09/28 07:31:42;;;;;;;9.27;7.40;;;;;;;10.28;85.12;101505.36;1756622;80;21220;-76
2021/09/28 07:34:09;;;;;;;12.53;9.77;;;;;;;10.31;85.07;101500.09;1748952;80;21343;-76
2021/09/28 07:36:36;;;;;;;10.10;8.40;;;;;;;10.41;85.09;101507.00;1753469;80;21266;-74
2021/09/28 07:39:04;;;;;;;12.87;8.27;;;;;;;10.55;85.11;101504.89;1754933;80;21293;-76
2021/09/28 07:41:31;;;;;;;10.60;8.03;;;;;;;10.64;84.75;101505.36;1755962;80;21314;-78
2021/09/28 07:43:58;;;;;;;10.57;8.37;;;;;;;10.75;84.35;101506.67;1755248;80;21230;-76
2021/09/28 07:46:25;;;;;;;9.97;8.07;;;;;;;10.84;84.09;101509.00;1752639;80;21312;-78
2021/09/28 07:48:52;;;;;;;10.03;8.70;;;;;;;10.95;83.86;101508.95;1753807;80;21413;-76
2021/09/28 07:51:18;;;;;;;9.13;7.93;;;;;;;11.08;83.56;101511.09;1760632;80;22723;-75
2021/09/28 07:53:49;;;;;;;8.93;7.77;;;;;;;11.23;83.06;101515.41;1769455;80;21309;-76
2021/09/28 07:56:16;;;;;;;10.47;7.90;;;;;;;11.32;82.48;101513.99;1702410;82;21338;-76
2021/09/28 07:58:43;;;;;;;8.90;7.47;;;;;;;11.46;81.96;101511.84;1763410;80;21412;-76
2021/09/28 08:01:11;;;;;;;9.37;7.30;;;;;;;11.60;81.37;101516.37;1769617;80;21270;-75
2021/09/28 08:03:38;;;;;;;8.37;6.83;;;;;;;11.67;80.25;101516.49;1755767;80;21782;-79
2021/09/28 08:06:06;;;;;;;9.87;7.53;;;;;;;11.66;79.47;101513.54;1763542;80;21368;-77
2021/09/28 08:08:33;;;;;;;12.03;7.73;;;;;;;11.71;79.46;101511.47;1753713;80;21335;-76
2021/09/28 08:11:02;;;;;;;9.27;7.47;;;;;;;11.86;79.17;101516.32;1752051;80;21974;-76
2021/09/28 08:13:28;;;;;;;9.83;6.87;;;;;;;12.01;78.41;101511.73;1747988;80;21405;-75
2021/09/28 08:15:55;;;;;;;10.23;7.37;;;;;;;12.05;77.45;101509.69;1765293;80;22638;-76
2021/09/28 08:18:25;;;;;;;7.87;6.50;;;;;;;12.04;76.92;101506.70;1762036;80;21390;-75
2021/09/28 08:20:53;;;;;;;8.67;6.80;;;;;;;12.27;75.79;101502.23;1769497;80;21418;-76
2021/09/28 08:23:20;;;;;;;10.40;6.30;;;;;;;12.38;75.56;101503.50;1765703;80;21959;-75
2021/09/28 08:31:02;;;;;;;9.80;6.10;;;;;;;12.71;74.44;101507.17;1701845;83;21879;-75
2021/09/28 08:33:31;;;;;;;10.17;5.50;;;;;;;12.78;73.86;101509.14;1703983;82;21858;-75
2021/09/28 08:35:59;;;;;;;10.20;6.00;;;;;;;12.81;73.25;101511.33;1747116;80;21763;-76
2021/09/28 08:38:28;;;;;;;7.97;5.33;;;;;;;12.88;72.89;101513.28;1765137;80;21551;-75
2021/09/28 08:40:57;;;;;;;12.27;6.77;;;;;;;12.88;72.89;101513.28;1690850;82;21645;-74
2021/09/28 08:43:23;;;;;;;9.43;6.37;;;;;;;12.97;72.48;101512.34;1673283;84;21628;-75
2021/09/28 08:45:50;;;;;;;9.30;6.13;;;;;;;13.13;71.75;101509.31;1751521;80;21762;-74
2021/09/28 08:48:17;;;;;;;7.13;5.63;;;;;;;13.23;70.93;101508.09;1769113;80;21753;-74
2021/09/28 08:50:47;;;;;;;8.77;5.90;;;;;;;13.27;70.17;101507.08;1768034;80;21709;-74
2021/09/28 08:53:15;;;;;;;9.90;6.00;;;;;;;13.27;70.04;101505.20;1753422;80;21717;-74
2021/09/28 08:55:43;;;;;;;9.97;5.73;;;;;;;13.43;69.24;101502.70;1745989;80;21666;-73
2021/09/28 08:58:24;;;;;;;8.63;5.30;;;;;;;13.43;69.24;101502.70;1773341;80;21193;-75
2021/09/28 09:00:52;;;;;;;9.70;5.25;;;;;;;13.46;68.75;101504.84;1776442;79;21616;-72
2021/09/28 09:03:32;;;;;;;10.73;5.90;;;;;;;13.46;68.46;101504.84;1778002;79;21301;-75
2021/09/28 09:06:01;;;;;;;;;;;;;;;13.50;68.25;101509.47;1775475;80;21766;-75
2021/09/28 09:08:34;;;;;;;9.73;6.00;;;;;;;13.57;67.80;101503.91;1785843;80;20205;-75
2021/09/28 09:11:12;;;;;;;10.85;5.25;;;;;;;13.63;67.85;101504.77;1746115;79;22339;-74
2021/09/28 09:13:46;;;;;;;13.37;7.37;;;;;;;13.70;67.66;101503.48;1759453;80;20984;-74
2021/09/28 09:16:15;;;;;;;14.53;7.23;;;;;;;13.84;67.13;101504.68;1768543;80;21863;-74
2021/09/28 09:18:45;;;;;;;13.10;7.50;;;;;;;14.01;66.17;101509.12;1764091;80;21730;-74
2021/09/28 09:21:14;;;;;;;10.97;5.60;;;;;;;14.01;66.17;101509.12;1759016;80;21087;-74
2021/09/28 09:23:45;;;;;;;11.73;5.17;;;;;;;14.11;66.01;101513.77;1748939;80;21648;-75
2021/09/28 09:26:20;;;;;;;7.53;4.50;;;;;;;14.31;64.99;101512.56;1766976;79;21723;-74
2021/09/28 09:28:54;;;;;;;8.00;4.33;;;;;;;14.31;64.99;101512.56;1702172;84;21695;-74
2021/09/28 09:31:32;;;;;;;10.47;4.20;;;;;;;14.33;63.71;101515.01;1760802;80;21110;-73
2021/09/28 09:34:13;;;;;;;9.87;4.43;;;;;;;14.24;63.00;101513.32;1743854;80;21043;-73
2021/09/28 09:36:40;;;;;;;10.37;4.60;;;;;;;14.13;62.85;101521.84;1755056;80;21189;-73
2021/09/28 09:39:11;;;;;;;10.67;4.37;;;;;;;14.08;63.17;101519.94;1758664;80;21118;-74
2021/09/28 09:41:39;;;;;;;11.57;4.78;;;;;;;14.16;62.45;101516.50;1748290;80;21080;-74
2021/09/28 09:44:14;;;;;;;11.90;4.40;;;;;;;14.19;62.06;101518.14;1759190;80;21594;-75
2021/09/28 09:46:51;;;;;;;9.73;4.20;;;;;;;14.23;62.36;101511.71;1767813;80;21099;-74
2021/09/28 09:49:24;;;;;;;12.67;4.60;;;;;;;14.31;61.54;101513.39;1749424;80;21865;-76
2021/09/28 09:51:54;;;;;;;10.50;4.00;;;;;;;14.41;61.54;101506.45;1701859;84;21055;-76
2021/09/28 09:54:35;;;;;;;12.43;4.73;;;;;;;14.53;61.53;101501.72;1758620;80;22003;-76
2021/09/28 09:57:06;;;;;;;11.33;4.00;;;;;;;14.62;61.47;101505.55;1720451;82;21001;-76
2021/09/28 09:59:34;;;;;;;14.13;4.92;;;;;;;14.69;61.20;101512.03;1768696;80;21059;-77
2021/09/28 10:02:02;;;;;;;13.63;4.40;;;;;;;14.62;60.79;101508.77;1763789;80;21146;-75
2021/09/28 10:04:29;;;;;;;14.27;4.17;;;;;;;14.48;60.56;101508.39;1753543;80;21077;-77
2021/09/28 10:06:56;;;;;;;11.03;3.77;;;;;;;14.34;59.82;101511.24;1772269;80;21083;-75
2021/09/28 10:09:34;;;;;;;16.63;5.37;;;;;;;14.14;60.50;101522.11;1770322;80;21028;-75
2021/09/28 10:12:04;;;;;;;13.43;4.40;;;;;;;14.04;61.09;101518.01;1766987;80;21187;-75
2021/09/28 10:14:37;;;;;;;12.50;4.40;;;;;;;13.98;61.83;101513.66;1747657;80;21074;-75
2021/09/28 10:17:34;;;;;;;11.47;4.10;;;;;;;13.93;62.10;101524.38;1769385;80;21051;-75
2021/09/28 10:20:00;;;;;;;19.63;4.90;;;;;;;13.79;61.43;101521.30;1764448;80;21043;-73
2021/09/28 10:22:52;;;;;;;11.80;5.13;;;;;;;13.42;62.56;101522.52;1749048;80;21751;-74
2021/09/28 10:25:22;;;;;;;;;;;;;;;13.42;62.56;101522.52;1749486;80;21437;-74
2021/09/28 10:28:10;;;;;;;15.83;5.10;;;;;;;13.41;63.02;101520.91;1764948;80;21835;-74
2021/09/28 10:30:42;;;;;;;17.63;4.90;;;;;;;13.44;63.32;101524.44;1772871;80;21680;-74
2021/09/28 10:33:28;;;;;;;13.20;4.03;;;;;;;13.51;63.35;101526.38;1700221;83;21749;-73
2021/09/28 10:36:07;;;;;;;13.10;4.30;;;;;;;13.59;62.94;101516.02;1755540;79;21758;-75
2021/09/28 10:38:58;;;;;;;12.63;4.50;;;;;;;13.65;62.57;101516.85;1760487;79;21823;-73
2021/09/28 10:41:42;;;;;;;12.53;4.00;;;;;;;13.70;62.16;101520.14;1771605;80;21734;-73
2021/09/28 10:44:36;;;;;;;11.73;4.30;;;;;;;13.76;61.96;101524.49;1754211;80;22978;-75
2021/09/28 10:46:59;;;;;;;11.37;4.10;;;;;;;13.77;61.93;101525.56;1756985;80;22191;-73
2021/09/28 10:49:35;;;;;;;16.27;4.70;;;;;;;13.77;62.17;101530.13;1750639;80;21749;-74
2021/09/28 10:52:26;;;;;;;15.37;4.53;;;;;;;13.85;62.38;101524.28;1764325;80;21763;-76
2021/09/28 10:55:14;;;;;;;16.23;4.47;;;;;;;13.85;62.38;101524.28;1752083;80;21540;-77
2021/09/28 10:58:03;;;;;;;12.57;4.27;;;;;;;13.90;62.36;101523.54;1758235;80;21055;-73
2021/09/28 11:00:44;;;;;;;13.57;4.30;;;;;;;14.07;61.84;101520.19;1756810;80;21067;-75
2021/09/28 11:03:11;;;;;;;12.60;4.45;;;;;;;14.07;61.84;101520.19;1728401;80;21523;-75
2021/09/28 11:05:45;;;;;;;13.83;5.00;;;;;;;14.12;62.11;101528.30;1755330;80;22108;-75
2021/09/28 11:08:16;;;;;;;12.63;5.03;;;;;;;14.19;61.97;101526.20;1730148;80;22280;-74
2021/09/28 11:10:46;;;;;;;10.25;3.77;;;;;;;14.24;61.35;101528.10;1760848;80;21699;-75
2021/09/28 11:13:14;;;;;;;16.60;4.90;;;;;;;14.25;61.28;101531.09;1702681;82;21076;-76
2021/09/28 11:15:43;;;;;;;11.73;4.67;;;;;;;14.21;61.02;101535.33;1748154;80;21034;-75
2021/09/28 11:18:12;;;;;;;13.40;4.20;;;;;;;14.13;60.58;101533.94;1761372;80;21701;-75
2021/09/28 11:20:39;;;;;;;10.33;4.03;;;;;;;14.06;61.17;101529.32;1766018;80;21791;-75
2021/09/28 11:23:10;;;;;;;15.07;4.47;;;;;;;14.06;61.17;101529.32;1760212;80;22218;-75
2021/09/28 11:25:38;;;;;;;14.20;4.80;;;;;;;14.07;60.75;101529.05;1763199;80;21019;-75
2021/09/28 11:28:10;;;;;;;12.73;4.87;;;;;;;14.10;61.05;101521.55;1764775;80;21742;-74
2021/09/28 11:30:40;;;;;;;16.80;4.43;;;;;;;14.14;61.49;101528.02;1769594;80;21027;-75
2021/09/28 11:33:10;;;;;;;12.40;4.33;;;;;;;14.18;61.30;101538.02;1768075;80;21970;-76
2021/09/28 11:35:37;;;;;;;15.80;4.93;;;;;;;14.17;61.40;101533.69;1768865;80;21754;-74
2021/09/28 11:38:07;;;;;;;11.97;4.47;;;;;;;14.14;61.09;101537.43;1747441;80;21763;-73
2021/09/28 11:40:43;;;;;;;11.00;3.90;;;;;;;14.09;61.40;101538.20;1764951;80;21711;-74